sensor_id;sensor_type;location;lat;lon;timestamp;pressure;altitude;pressure_sealevel;temperature;humidity
7730;BME280;3908;52.310;7.230;2024-02-26T00:03:54;51688.91;;;-145.83;96.66
7730;BME280;3908;52.310;7.230;2024-02-26T00:06:46;51638.03;;;-145.83;96.74
7730;BME280;3908;52.310;7.230;2024-02-26T00:30:19;51659.56;;;-145.83;97.93
7730;BME280;3908;52.310;7.230;2024-02-26T00:33:06;51683.03;;;-145.83;97.78
7730;BME280;3908;52.310;7.230;2024-02-26T06:50:39;51690.88;;;-145.83;87.51
7730;BME280;3908;52.310;7.230;2024-02-26T08:33:11;51710.44;;;-145.83;82.70
7730;BME280;3908;52.310;7.230;2024-02-26T08:35:59;51690.88;;;-145.83;83.30
7730;BME280;3908;52.310;7.230;2024-02-26T08:38:46;51706.53;;;-145.83;82.69
7730;BME280;3908;52.310;7.230;2024-02-26T08:41:33;51696.75;;;-145.83;83.21
7730;BME280;3908;52.310;7.230;2024-02-26T08:44:20;51698.69;;;-145.83;82.71
7730;BME280;3908;52.310;7.230;2024-02-26T08:47:08;51692.81;;;-145.83;83.12
7730;BME280;3908;52.310;7.230;2024-02-26T08:49:56;51686.94;;;-145.83;83.20
7730;BME280;3908;52.310;7.230;2024-02-26T08:52:43;51702.59;;;-145.83;83.18
7730;BME280;3908;52.310;7.230;2024-02-26T08:55:34;51733.91;;;-145.83;82.72
7730;BME280;3908;52.310;7.230;2024-02-26T08:58:21;51690.88;;;-145.83;83.00
7730;BME280;3908;52.310;7.230;2024-02-26T09:01:08;51722.16;;;-145.83;82.88
7730;BME280;3908;52.310;7.230;2024-02-26T09:03:55;51706.53;;;-145.83;83.54
7730;BME280;3908;52.310;7.230;2024-02-26T09:06:44;51698.69;;;-145.83;83.64
7730;BME280;3908;52.310;7.230;2024-02-26T09:09:32;51686.94;;;-145.83;83.31
7730;BME280;3908;52.310;7.230;2024-02-26T09:12:19;51685.00;;;-145.83;83.73
7730;BME280;3908;52.310;7.230;2024-02-26T09:15:07;51714.34;;;-145.83;84.30
7730;BME280;3908;52.310;7.230;2024-02-26T09:17:54;51724.13;;;-145.83;84.67
7730;BME280;3908;52.310;7.230;2024-02-26T09:20:41;51743.69;;;-145.83;84.43
7730;BME280;3908;52.310;7.230;2024-02-26T09:23:30;51661.53;;;-145.83;84.86
7730;BME280;3908;52.310;7.230;2024-02-26T09:26:17;51698.69;;;-145.83;85.27
7730;BME280;3908;52.310;7.230;2024-02-26T09:29:04;51700.66;;;-145.83;85.64
7730;BME280;3908;52.310;7.230;2024-02-26T09:31:51;51692.81;;;-145.83;86.34
7730;BME280;3908;52.310;7.230;2024-02-26T09:34:39;51706.53;;;-145.83;86.23
7730;BME280;3908;52.310;7.230;2024-02-26T09:37:27;51686.94;;;-145.83;86.01
7730;BME280;3908;52.310;7.230;2024-02-26T09:40:15;51649.78;;;-145.83;86.57
7730;BME280;3908;52.310;7.230;2024-02-26T09:43:04;51686.94;;;-145.83;87.01
7730;BME280;3908;52.310;7.230;2024-02-26T09:45:53;51698.69;;;-145.83;87.05
7730;BME280;3908;52.310;7.230;2024-02-26T09:48:42;51708.47;;;-145.83;86.66
7730;BME280;3908;52.310;7.230;2024-02-26T09:51:31;51688.91;;;-145.83;87.15
7730;BME280;3908;52.310;7.230;2024-02-26T09:54:19;51720.22;;;-145.83;86.58
7730;BME280;3908;52.310;7.230;2024-02-26T09:57:09;51696.75;;;-145.83;86.29
7730;BME280;3908;52.310;7.230;2024-02-26T10:00:02;51692.81;;;-145.83;86.44
7730;BME280;3908;52.310;7.230;2024-02-26T10:02:51;51718.25;;;-145.83;87.31
7730;BME280;3908;52.310;7.230;2024-02-26T10:05:38;51665.44;;;-145.83;86.32
7730;BME280;3908;52.310;7.230;2024-02-26T10:08:27;51718.25;;;-145.83;86.90
7730;BME280;3908;52.310;7.230;2024-02-26T10:11:14;51731.94;;;-145.83;86.77
7730;BME280;3908;52.310;7.230;2024-02-26T10:14:03;51708.47;;;-145.83;86.37
7730;BME280;3908;52.310;7.230;2024-02-26T10:16:51;51688.91;;;-145.83;87.28
7730;BME280;3908;52.310;7.230;2024-02-26T10:19:38;51730.00;;;-145.83;86.24
7730;BME280;3908;52.310;7.230;2024-02-26T10:22:27;51722.16;;;-145.83;86.19
7730;BME280;3908;52.310;7.230;2024-02-26T10:25:14;51763.25;;;-145.83;85.22
7730;BME280;3908;52.310;7.230;2024-02-26T10:28:02;51731.94;;;-145.83;85.80
7730;BME280;3908;52.310;7.230;2024-02-26T10:30:51;51708.47;;;-145.83;84.35
7730;BME280;3908;52.310;7.230;2024-02-26T10:33:39;51733.91;;;-145.83;85.06
7730;BME280;3908;52.310;7.230;2024-02-26T10:36:26;51731.94;;;-145.83;84.23
7730;BME280;3908;52.310;7.230;2024-02-26T10:39:13;51704.56;;;-145.83;82.98
7730;BME280;3908;52.310;7.230;2024-02-26T10:42:01;51712.38;;;-145.83;82.92
7730;BME280;3908;52.310;7.230;2024-02-26T10:44:52;51724.13;;;-145.83;83.61
7730;BME280;3908;52.310;7.230;2024-02-26T10:47:43;51724.13;;;-145.83;84.13
7730;BME280;3908;52.310;7.230;2024-02-26T10:50:30;51718.25;;;-145.83;84.11
7730;BME280;3908;52.310;7.230;2024-02-26T10:53:20;51735.88;;;-145.83;83.73
7730;BME280;3908;52.310;7.230;2024-02-26T10:56:08;51735.88;;;-145.83;84.43
7730;BME280;3908;52.310;7.230;2024-02-26T10:58:57;51726.09;;;-145.83;83.92
7730;BME280;3908;52.310;7.230;2024-02-26T11:04:21;51759.34;;;-145.83;83.92
7730;BME280;3908;52.310;7.230;2024-02-26T11:07:11;51710.44;;;-145.83;84.17
7730;BME280;3908;52.310;7.230;2024-02-26T11:10:00;51720.22;;;-145.83;83.62
7730;BME280;3908;52.310;7.230;2024-02-26T11:28:48;51718.25;;;-145.83;84.68
7730;BME280;3908;52.310;7.230;2024-02-26T11:31:38;51706.53;;;-145.83;83.74
7730;BME280;3908;52.310;7.230;2024-02-26T11:34:25;51706.53;;;-145.83;84.35
7730;BME280;3908;52.310;7.230;2024-02-26T11:37:14;51712.38;;;-145.83;84.88
7730;BME280;3908;52.310;7.230;2024-02-26T11:40:01;51737.81;;;-145.83;84.73
7730;BME280;3908;52.310;7.230;2024-02-26T11:48:02;51726.09;;;-145.83;85.00
7730;BME280;3908;52.310;7.230;2024-02-26T11:50:50;51698.69;;;-145.83;85.45
7730;BME280;3908;52.310;7.230;2024-02-26T11:53:45;51763.25;;;-145.83;84.97
7730;BME280;3908;52.310;7.230;2024-02-26T11:56:34;51731.94;;;-145.83;84.83
7730;BME280;3908;52.310;7.230;2024-02-26T11:59:38;51692.81;;;-145.83;85.11
7730;BME280;3908;52.310;7.230;2024-02-26T12:02:40;51683.03;;;-145.83;85.96
7730;BME280;3908;52.310;7.230;2024-02-26T12:05:31;51673.25;;;-145.83;85.05
7730;BME280;3908;52.310;7.230;2024-02-26T12:08:21;51724.13;;;-145.83;85.34
7730;BME280;3908;52.310;7.230;2024-02-26T12:11:14;51681.09;;;-145.83;86.57
7730;BME280;3908;52.310;7.230;2024-02-26T12:14:01;51714.34;;;-145.83;86.05
7730;BME280;3908;52.310;7.230;2024-02-26T12:16:48;51696.75;;;-145.83;85.39
7730;BME280;3908;52.310;7.230;2024-02-26T12:19:35;51714.34;;;-145.83;85.66
7730;BME280;3908;52.310;7.230;2024-02-26T12:22:24;51694.78;;;-145.83;83.98
7730;BME280;3908;52.310;7.230;2024-02-26T12:25:13;51724.13;;;-145.83;84.49
7730;BME280;3908;52.310;7.230;2024-02-26T12:28:00;51700.66;;;-145.83;84.31
7730;BME280;3908;52.310;7.230;2024-02-26T12:30:48;51698.69;;;-145.83;83.93
7730;BME280;3908;52.310;7.230;2024-02-26T12:36:10;51661.53;;;-145.83;83.60
7730;BME280;3908;52.310;7.230;2024-02-26T12:38:59;51726.09;;;-145.83;83.36
7730;BME280;3908;52.310;7.230;2024-02-26T12:41:53;51683.03;;;-145.83;82.96
7730;BME280;3908;52.310;7.230;2024-02-26T12:44:40;51733.91;;;-145.83;82.79
7730;BME280;3908;52.310;7.230;2024-02-26T12:47:28;51722.16;;;-145.83;82.58
7730;BME280;3908;52.310;7.230;2024-02-26T12:50:15;51714.34;;;-145.83;82.67
7730;BME280;3908;52.310;7.230;2024-02-26T12:53:03;51726.09;;;-145.83;81.75
7730;BME280;3908;52.310;7.230;2024-02-26T12:55:51;51706.53;;;-145.83;81.77
7730;BME280;3908;52.310;7.230;2024-02-26T12:58:39;51745.66;;;-145.83;82.18
7730;BME280;3908;52.310;7.230;2024-02-26T13:01:27;51712.38;;;-145.83;81.77
7730;BME280;3908;52.310;7.230;2024-02-26T13:04:16;51704.56;;;-145.83;81.34
7730;BME280;3908;52.310;7.230;2024-02-26T13:07:04;51757.38;;;-145.83;81.69
7730;BME280;3908;52.310;7.230;2024-02-26T13:09:51;51704.56;;;-145.83;81.55
7730;BME280;3908;52.310;7.230;2024-02-26T13:12:43;51716.31;;;-145.83;82.28
7730;BME280;3908;52.310;7.230;2024-02-26T13:15:30;51685.00;;;-145.83;82.19
7730;BME280;3908;52.310;7.230;2024-02-26T13:18:18;51720.22;;;-145.83;82.07
7730;BME280;3908;52.310;7.230;2024-02-26T13:21:09;51714.34;;;-145.83;81.14
7730;BME280;3908;52.310;7.230;2024-02-26T13:23:56;51702.59;;;-145.83;81.51
7730;BME280;3908;52.310;7.230;2024-02-26T13:26:44;51690.88;;;-145.83;82.74
7730;BME280;3908;52.310;7.230;2024-02-26T13:29:33;51728.03;;;-145.83;82.11
7730;BME280;3908;52.310;7.230;2024-02-26T13:32:21;51712.38;;;-145.83;80.81
7730;BME280;3908;52.310;7.230;2024-02-26T13:35:09;51716.31;;;-145.83;80.70
7730;BME280;3908;52.310;7.230;2024-02-26T13:37:56;51718.25;;;-145.83;80.81
7730;BME280;3908;52.310;7.230;2024-02-26T13:40:43;51720.22;;;-145.83;79.39
7730;BME280;3908;52.310;7.230;2024-02-26T13:43:30;51720.22;;;-145.83;80.43
7730;BME280;3908;52.310;7.230;2024-02-26T13:46:19;51710.44;;;-145.83;79.47
7730;BME280;3908;52.310;7.230;2024-02-26T13:49:08;51720.22;;;-145.83;79.65
7730;BME280;3908;52.310;7.230;2024-02-26T13:51:55;51694.78;;;-145.83;79.57
7730;BME280;3908;52.310;7.230;2024-02-26T13:54:43;51737.81;;;-145.83;79.98
7730;BME280;3908;52.310;7.230;2024-02-26T13:57:30;51714.34;;;-145.83;80.02
7730;BME280;3908;52.310;7.230;2024-02-26T14:00:18;51706.53;;;-145.83;79.65
7730;BME280;3908;52.310;7.230;2024-02-26T14:03:06;51704.56;;;-145.83;79.64
7730;BME280;3908;52.310;7.230;2024-02-26T14:05:53;51724.13;;;-145.83;80.00
7730;BME280;3908;52.310;7.230;2024-02-26T14:08:42;51712.38;;;-145.83;79.78
7730;BME280;3908;52.310;7.230;2024-02-26T14:11:29;51714.34;;;-145.83;79.78
7730;BME280;3908;52.310;7.230;2024-02-26T14:14:17;51708.47;;;-145.83;79.88
7730;BME280;3908;52.310;7.230;2024-02-26T14:17:04;51767.16;;;-145.83;79.90
7730;BME280;3908;52.310;7.230;2024-02-26T14:19:57;51714.34;;;-145.83;79.67
7730;BME280;3908;52.310;7.230;2024-02-26T14:22:44;51739.78;;;-145.83;79.63
7730;BME280;3908;52.310;7.230;2024-02-26T14:25:31;51763.25;;;-145.83;80.08
7730;BME280;3908;52.310;7.230;2024-02-26T14:28:18;51737.81;;;-145.83;79.79
7730;BME280;3908;52.310;7.230;2024-02-26T14:31:12;51733.91;;;-145.83;80.02
7730;BME280;3908;52.310;7.230;2024-02-26T14:34:00;51737.81;;;-145.83;80.10
7730;BME280;3908;52.310;7.230;2024-02-26T14:36:49;51728.03;;;-145.83;80.08
7730;BME280;3908;52.310;7.230;2024-02-26T14:39:37;51737.81;;;-145.83;79.81
7730;BME280;3908;52.310;7.230;2024-02-26T14:42:25;51747.59;;;-145.83;79.63
7730;BME280;3908;52.310;7.230;2024-02-26T14:45:12;51743.69;;;-145.83;78.95
7730;BME280;3908;52.310;7.230;2024-02-26T14:50:41;51675.22;;;-145.83;79.25
7730;BME280;3908;52.310;7.230;2024-02-26T14:53:29;51712.38;;;-145.83;78.52
7730;BME280;3908;52.310;7.230;2024-02-26T14:56:17;51708.47;;;-145.83;78.28
7730;BME280;3908;52.310;7.230;2024-02-26T15:40:33;51737.81;;;-145.83;79.30
7730;BME280;3908;52.310;7.230;2024-02-26T15:43:20;51690.88;;;-145.83;79.46
7730;BME280;3908;52.310;7.230;2024-02-26T15:48:41;51724.13;;;-145.83;79.50
7730;BME280;3908;52.310;7.230;2024-02-26T15:51:28;51726.09;;;-145.83;79.98
7730;BME280;3908;52.310;7.230;2024-02-26T15:56:56;51731.94;;;-145.83;79.85
7730;BME280;3908;52.310;7.230;2024-02-26T15:59:43;51692.81;;;-145.83;79.97
7730;BME280;3908;52.310;7.230;2024-02-26T16:02:30;51745.66;;;-145.83;80.05
7730;BME280;3908;52.310;7.230;2024-02-26T16:05:17;51679.13;;;-145.83;80.22
7730;BME280;3908;52.310;7.230;2024-02-26T16:08:07;51755.44;;;-145.83;80.02
7730;BME280;3908;52.310;7.230;2024-02-26T16:10:59;51706.53;;;-145.83;80.22
7730;BME280;3908;52.310;7.230;2024-02-26T16:13:51;51710.44;;;-145.83;80.31
7730;BME280;3908;52.310;7.230;2024-02-26T16:16:50;51730.00;;;-145.83;80.32
7730;BME280;3908;52.310;7.230;2024-02-26T16:19:38;51747.59;;;-145.83;80.26
7730;BME280;3908;52.310;7.230;2024-02-26T16:22:26;51718.25;;;-145.83;80.66
7730;BME280;3908;52.310;7.230;2024-02-26T16:25:14;51728.03;;;-145.83;80.32
7730;BME280;3908;52.310;7.230;2024-02-26T16:28:01;51716.31;;;-145.83;80.75
7730;BME280;3908;52.310;7.230;2024-02-26T16:30:50;51747.59;;;-145.83;80.75
7730;BME280;3908;52.310;7.230;2024-02-26T16:33:41;51730.00;;;-145.83;81.17
7730;BME280;3908;52.310;7.230;2024-02-26T16:36:28;51690.88;;;-145.83;81.50
7730;BME280;3908;52.310;7.230;2024-02-26T16:39:17;51731.94;;;-145.83;81.77
7730;BME280;3908;52.310;7.230;2024-02-26T16:42:06;51712.38;;;-145.83;82.04
7730;BME280;3908;52.310;7.230;2024-02-26T16:44:54;51720.22;;;-145.83;82.29
7730;BME280;3908;52.310;7.230;2024-02-26T16:47:44;51733.91;;;-145.83;82.44
7730;BME280;3908;52.310;7.230;2024-02-26T16:50:31;51708.47;;;-145.83;82.84
7730;BME280;3908;52.310;7.230;2024-02-26T16:53:19;51698.69;;;-145.83;82.54
7730;BME280;3908;52.310;7.230;2024-02-26T16:56:09;51737.81;;;-145.83;83.04
7730;BME280;3908;52.310;7.230;2024-02-26T16:58:56;51690.88;;;-145.83;83.07
7730;BME280;3908;52.310;7.230;2024-02-26T17:01:45;51708.47;;;-145.83;83.28
7730;BME280;3908;52.310;7.230;2024-02-26T17:04:34;51714.34;;;-145.83;83.48
7730;BME280;3908;52.310;7.230;2024-02-26T17:07:21;51728.03;;;-145.83;83.86
7730;BME280;3908;52.310;7.230;2024-02-26T17:10:09;51722.16;;;-145.83;83.62
7730;BME280;3908;52.310;7.230;2024-02-26T17:12:57;51741.75;;;-145.83;83.65
7730;BME280;3908;52.310;7.230;2024-02-26T17:15:44;51686.94;;;-145.83;84.16
7730;BME280;3908;52.310;7.230;2024-02-26T17:18:31;51710.44;;;-145.83;83.77
7730;BME280;3908;52.310;7.230;2024-02-26T17:21:23;51718.25;;;-145.83;84.02
7730;BME280;3908;52.310;7.230;2024-02-26T17:24:10;51733.91;;;-145.83;84.15
7730;BME280;3908;52.310;7.230;2024-02-26T17:26:57;51692.81;;;-145.83;84.00
7730;BME280;3908;52.310;7.230;2024-02-26T17:29:47;51726.09;;;-145.83;84.11
7730;BME280;3908;52.310;7.230;2024-02-26T17:32:34;51718.25;;;-145.83;84.54
7730;BME280;3908;52.310;7.230;2024-02-26T17:35:21;51720.22;;;-145.83;84.60
7730;BME280;3908;52.310;7.230;2024-02-26T17:38:10;51712.38;;;-145.83;84.49
7730;BME280;3908;52.310;7.230;2024-02-26T17:40:57;51673.25;;;-145.83;84.70
7730;BME280;3908;52.310;7.230;2024-02-26T17:43:45;51737.81;;;-145.83;84.92
7730;BME280;3908;52.310;7.230;2024-02-26T17:46:32;51714.34;;;-145.83;84.86
7730;BME280;3908;52.310;7.230;2024-02-26T17:49:19;51700.66;;;-145.83;85.51
7730;BME280;3908;52.310;7.230;2024-02-26T17:52:09;51710.44;;;-145.83;85.23
7730;BME280;3908;52.310;7.230;2024-02-26T17:54:58;51710.44;;;-145.83;85.50
7730;BME280;3908;52.310;7.230;2024-02-26T17:57:45;51702.59;;;-145.83;85.91
7730;BME280;3908;52.310;7.230;2024-02-26T18:00:32;51728.03;;;-145.83;85.89
7730;BME280;3908;52.310;7.230;2024-02-26T18:03:19;51716.31;;;-145.83;85.72
7730;BME280;3908;52.310;7.230;2024-02-26T18:06:07;51686.94;;;-145.83;86.11
7730;BME280;3908;52.310;7.230;2024-02-26T18:08:54;51728.03;;;-145.83;86.06
7730;BME280;3908;52.310;7.230;2024-02-26T18:11:44;51653.69;;;-145.83;86.02
7730;BME280;3908;52.310;7.230;2024-02-26T18:14:32;51698.69;;;-145.83;86.26
7730;BME280;3908;52.310;7.230;2024-02-26T18:17:19;51698.69;;;-145.83;86.39
7730;BME280;3908;52.310;7.230;2024-02-26T18:20:09;51712.38;;;-145.83;86.32
7730;BME280;3908;52.310;7.230;2024-02-26T18:22:57;51659.56;;;-145.83;86.22
7730;BME280;3908;52.310;7.230;2024-02-26T18:25:44;51706.53;;;-145.83;86.22
7730;BME280;3908;52.310;7.230;2024-02-26T18:28:33;51651.75;;;-145.83;86.21
7730;BME280;3908;52.310;7.230;2024-02-26T18:31:22;51698.69;;;-145.83;86.34
7730;BME280;3908;52.310;7.230;2024-02-26T18:34:09;51696.75;;;-145.83;86.40
7730;BME280;3908;52.310;7.230;2024-02-26T18:36:56;51735.88;;;-145.83;86.61
7730;BME280;3908;52.310;7.230;2024-02-26T18:39:44;51708.47;;;-145.83;86.64
7730;BME280;3908;52.310;7.230;2024-02-26T18:42:32;51716.31;;;-145.83;86.56
7730;BME280;3908;52.310;7.230;2024-02-26T18:45:22;51718.25;;;-145.83;86.64
7730;BME280;3908;52.310;7.230;2024-02-26T18:48:09;51728.03;;;-145.83;86.50
7730;BME280;3908;52.310;7.230;2024-02-26T18:50:56;51702.59;;;-145.83;86.90
7730;BME280;3908;52.310;7.230;2024-02-26T18:53:44;51730.00;;;-145.83;86.67
7730;BME280;3908;52.310;7.230;2024-02-26T18:56:31;51710.44;;;-145.83;87.04
7730;BME280;3908;52.310;7.230;2024-02-26T18:59:19;51720.22;;;-145.83;86.50
7730;BME280;3908;52.310;7.230;2024-02-26T19:02:08;51712.38;;;-145.83;86.78
7730;BME280;3908;52.310;7.230;2024-02-26T19:04:56;51733.91;;;-145.83;86.85
7730;BME280;3908;52.310;7.230;2024-02-26T19:07:43;51730.00;;;-145.83;86.63
7730;BME280;3908;52.310;7.230;2024-02-26T19:10:30;51716.31;;;-145.83;86.71
7730;BME280;3908;52.310;7.230;2024-02-26T19:13:17;51712.38;;;-145.83;86.70
7730;BME280;3908;52.310;7.230;2024-02-26T19:16:06;51702.59;;;-145.83;86.58
7730;BME280;3908;52.310;7.230;2024-02-26T19:18:55;51716.31;;;-145.83;86.63
7730;BME280;3908;52.310;7.230;2024-02-26T19:21:46;51720.22;;;-145.83;86.34
7730;BME280;3908;52.310;7.230;2024-02-26T19:24:36;51731.94;;;-145.83;86.28
7730;BME280;3908;52.310;7.230;2024-02-26T19:27:23;51702.59;;;-145.83;85.96
7730;BME280;3908;52.310;7.230;2024-02-26T19:30:11;51698.69;;;-145.83;86.56
7730;BME280;3908;52.310;7.230;2024-02-26T19:32:58;51688.91;;;-145.83;86.12
7730;BME280;3908;52.310;7.230;2024-02-26T19:35:51;51692.81;;;-145.83;86.32
7730;BME280;3908;52.310;7.230;2024-02-26T19:38:39;51694.78;;;-145.83;85.84
7730;BME280;3908;52.310;7.230;2024-02-26T19:41:28;51696.75;;;-145.83;85.13
7730;BME280;3908;52.310;7.230;2024-02-26T19:44:15;51710.44;;;-145.83;85.01
7730;BME280;3908;52.310;7.230;2024-02-26T19:47:02;51710.44;;;-145.83;85.73
7730;BME280;3908;52.310;7.230;2024-02-26T19:49:50;51702.59;;;-145.83;86.06
7730;BME280;3908;52.310;7.230;2024-02-26T19:52:39;51739.78;;;-145.83;85.21
7730;BME280;3908;52.310;7.230;2024-02-26T19:55:28;51728.03;;;-145.83;85.80
7730;BME280;3908;52.310;7.230;2024-02-26T19:58:15;51708.47;;;-145.83;85.75
7730;BME280;3908;52.310;7.230;2024-02-26T20:01:02;51761.31;;;-145.83;86.35
7730;BME280;3908;52.310;7.230;2024-02-26T20:03:50;51702.59;;;-145.83;85.93
7730;BME280;3908;52.310;7.230;2024-02-26T20:06:37;51683.03;;;-145.83;85.68
7730;BME280;3908;52.310;7.230;2024-02-26T20:09:26;51730.00;;;-145.83;85.87
7730;BME280;3908;52.310;7.230;2024-02-26T20:12:15;51700.66;;;-145.83;85.60
7730;BME280;3908;52.310;7.230;2024-02-26T20:15:03;51683.03;;;-145.83;85.94
7730;BME280;3908;52.310;7.230;2024-02-26T20:17:51;51741.75;;;-145.83;85.89
7730;BME280;3908;52.310;7.230;2024-02-26T20:20:38;51692.81;;;-145.83;85.79
7730;BME280;3908;52.310;7.230;2024-02-26T20:23:25;51686.94;;;-145.83;85.91
7730;BME280;3908;52.310;7.230;2024-02-26T20:26:14;51730.00;;;-145.83;85.43
7730;BME280;3908;52.310;7.230;2024-02-26T20:29:01;51683.03;;;-145.83;85.42
7730;BME280;3908;52.310;7.230;2024-02-26T20:31:48;51694.78;;;-145.83;86.49
7730;BME280;3908;52.310;7.230;2024-02-26T20:34:35;51720.22;;;-145.83;86.04
7730;BME280;3908;52.310;7.230;2024-02-26T20:37:27;51686.94;;;-145.83;85.99
7730;BME280;3908;52.310;7.230;2024-02-26T20:40:16;51706.53;;;-145.83;86.15
7730;BME280;3908;52.310;7.230;2024-02-26T20:43:06;51716.31;;;-145.83;86.28
7730;BME280;3908;52.310;7.230;2024-02-26T20:45:53;51681.09;;;-145.83;86.04
7730;BME280;3908;52.310;7.230;2024-02-26T20:48:45;51722.16;;;-145.83;85.74
7730;BME280;3908;52.310;7.230;2024-02-26T20:51:36;51690.88;;;-145.83;85.82
7730;BME280;3908;52.310;7.230;2024-02-26T20:54:31;51718.25;;;-145.83;85.51
7730;BME280;3908;52.310;7.230;2024-02-26T20:57:26;51726.09;;;-145.83;85.54
7730;BME280;3908;52.310;7.230;2024-02-26T21:00:19;51706.53;;;-145.83;85.46
7730;BME280;3908;52.310;7.230;2024-02-26T21:03:09;51696.75;;;-145.83;85.16
7730;BME280;3908;52.310;7.230;2024-02-26T21:06:24;51714.34;;;-145.83;85.31
7730;BME280;3908;52.310;7.230;2024-02-26T21:09:18;51685.00;;;-145.83;85.42
7730;BME280;3908;52.310;7.230;2024-02-26T21:12:09;51730.00;;;-145.83;84.99
7730;BME280;3908;52.310;7.230;2024-02-26T21:25:32;51698.69;;;-145.83;84.21
7730;BME280;3908;52.310;7.230;2024-02-26T21:28:20;51733.91;;;-145.83;84.35
7730;BME280;3908;52.310;7.230;2024-02-26T21:31:07;51712.38;;;-145.83;84.48
7730;BME280;3908;52.310;7.230;2024-02-26T21:33:54;51722.16;;;-145.83;84.27
7730;BME280;3908;52.310;7.230;2024-02-26T21:36:41;51714.34;;;-145.83;84.00
7730;BME280;3908;52.310;7.230;2024-02-26T21:39:29;51702.59;;;-145.83;84.20
7730;BME280;3908;52.310;7.230;2024-02-26T21:42:17;51708.47;;;-145.83;83.84
7730;BME280;3908;52.310;7.230;2024-02-26T21:45:05;51720.22;;;-145.83;84.38
7730;BME280;3908;52.310;7.230;2024-02-26T21:47:53;51706.53;;;-145.83;84.19
7730;BME280;3908;52.310;7.230;2024-02-26T21:50:40;51726.09;;;-145.83;83.92
7730;BME280;3908;52.310;7.230;2024-02-26T21:53:27;51702.59;;;-145.83;84.11
7730;BME280;3908;52.310;7.230;2024-02-26T21:56:15;51710.44;;;-145.83;84.26
7730;BME280;3908;52.310;7.230;2024-02-26T21:59:03;51712.38;;;-145.83;84.16
7730;BME280;3908;52.310;7.230;2024-02-26T22:01:52;51706.53;;;-145.83;84.83
7730;BME280;3908;52.310;7.230;2024-02-26T22:04:39;51737.81;;;-145.83;84.92
7730;BME280;3908;52.310;7.230;2024-02-26T22:07:26;51724.13;;;-145.83;84.25
7730;BME280;3908;52.310;7.230;2024-02-26T22:10:13;51675.22;;;-145.83;83.95
7730;BME280;3908;52.310;7.230;2024-02-26T22:13:00;51710.44;;;-145.83;84.17
7730;BME280;3908;52.310;7.230;2024-02-26T22:15:49;51700.66;;;-145.83;84.09
7730;BME280;3908;52.310;7.230;2024-02-26T22:18:36;51702.59;;;-145.83;83.57
7730;BME280;3908;52.310;7.230;2024-02-26T22:21:23;51710.44;;;-145.83;84.27
7730;BME280;3908;52.310;7.230;2024-02-26T22:24:10;51683.03;;;-145.83;84.20
7730;BME280;3908;52.310;7.230;2024-02-26T22:26:57;51708.47;;;-145.83;84.26
7730;BME280;3908;52.310;7.230;2024-02-26T22:29:44;51651.75;;;-145.83;84.35
7730;BME280;3908;52.310;7.230;2024-02-26T22:32:33;51706.53;;;-145.83;84.05
7730;BME280;3908;52.310;7.230;2024-02-26T22:35:21;51696.75;;;-145.83;83.97
7730;BME280;3908;52.310;7.230;2024-02-26T22:38:10;51712.38;;;-145.83;83.40
7730;BME280;3908;52.310;7.230;2024-02-26T22:40:57;51720.22;;;-145.83;83.41
7730;BME280;3908;52.310;7.230;2024-02-26T22:43:44;51730.00;;;-145.83;83.15
7730;BME280;3908;52.310;7.230;2024-02-26T22:46:31;51720.22;;;-145.83;82.90
7730;BME280;3908;52.310;7.230;2024-02-26T22:49:20;51679.13;;;-145.83;83.57
7730;BME280;3908;52.310;7.230;2024-02-26T22:52:07;51686.94;;;-145.83;83.32
7730;BME280;3908;52.310;7.230;2024-02-26T22:54:54;51688.91;;;-145.83;83.28
7730;BME280;3908;52.310;7.230;2024-02-26T22:57:41;51759.34;;;-145.83;82.88
7730;BME280;3908;52.310;7.230;2024-02-26T23:00:28;51661.53;;;-145.83;82.21
7730;BME280;3908;52.310;7.230;2024-02-26T23:03:21;51657.59;;;-145.83;82.23
7730;BME280;3908;52.310;7.230;2024-02-26T23:06:10;51692.81;;;-145.83;82.52
7730;BME280;3908;52.310;7.230;2024-02-26T23:08:57;51690.88;;;-145.83;82.42
7730;BME280;3908;52.310;7.230;2024-02-26T23:11:46;51710.44;;;-145.83;83.02
7730;BME280;3908;52.310;7.230;2024-02-26T23:14:34;51696.75;;;-145.83;82.66
7730;BME280;3908;52.310;7.230;2024-02-26T23:17:21;51681.09;;;-145.83;82.82
7730;BME280;3908;52.310;7.230;2024-02-26T23:20:09;51686.94;;;-145.83;82.78
7730;BME280;3908;52.310;7.230;2024-02-26T23:22:58;51702.59;;;-145.83;82.70
7730;BME280;3908;52.310;7.230;2024-02-26T23:25:49;51673.25;;;-145.83;82.36
